East Mansfield, Massachusetts
Current Conditions -  °F | °C
As of 4:34 PM on Wednesday 26 Nov 2014 (Local Time) from KOWD Reporting Station
Moderate Rain Moderate Rain  
Wind Chill: 25°   Ceiling: 700
Heat Index: 34°   Visibility: 4mi
Dew Point: 33°   Wind: 12mph
Humidity: 96%   Direction: 20°NNE
Pressure: 29.9"   Gusts: 21mph
Location:  42.02°N, 71.18°W
Report Text: KOWD 262134Z 02010G18KT 4SM RA BR BKN007 OVC012 01/01 A2990 RMK AO2 P0007 T00110006 $
Loading
Personal Weather Stations






























Interactive Weather Map New forecast layout! Learn more

10-Day Weather Forecast

Advertisements
Track Severe Weather on mobile